sensor_id;sensor_type;location;lat;lon;timestamp;P1;durP1;ratioP1;P2;durP2;ratioP2
52708;SDS011;38606;52.986;6.980;2023-03-31T00:00:00;30.23;;;3.95;;
52708;SDS011;38606;52.986;6.980;2023-03-31T00:02:26;23.27;;;4.40;;
52708;SDS011;38606;52.986;6.980;2023-03-31T00:04:53;21.88;;;3.60;;
52708;SDS011;38606;52.986;6.980;2023-03-31T00:07:23;27.08;;;4.03;;
52708;SDS011;38606;52.986;6.980;2023-03-31T00:09:49;23.45;;;3.67;;
52708;SDS011;38606;52.986;6.980;2023-03-31T00:12:19;24.60;;;3.75;;
52708;SDS011;38606;52.986;6.980;2023-03-31T00:14:45;20.73;;;3.45;;
52708;SDS011;38606;52.986;6.980;2023-03-31T00:17:11;27.00;;;3.50;;
52708;SDS011;38606;52.986;6.980;2023-03-31T00:19:37;21.88;;;4.15;;
52708;SDS011;38606;52.986;6.980;2023-03-31T00:22:04;27.08;;;4.07;;
52708;SDS011;38606;52.986;6.980;2023-03-31T00:24:30;21.55;;;3.38;;
52708;SDS011;38606;52.986;6.980;2023-03-31T00:27:03;22.00;;;3.40;;
52708;SDS011;38606;52.986;6.980;2023-03-31T00:29:30;25.67;;;4.03;;
52708;SDS011;38606;52.986;6.980;2023-03-31T00:31:57;19.02;;;3.88;;
52708;SDS011;38606;52.986;6.980;2023-03-31T00:34:24;20.33;;;3.13;;
52708;SDS011;38606;52.986;6.980;2023-03-31T00:36:50;28.15;;;3.47;;
52708;SDS011;38606;52.986;6.980;2023-03-31T00:39:20;21.25;;;3.53;;
52708;SDS011;38606;52.986;6.980;2023-03-31T00:41:48;29.95;;;4.80;;
52708;SDS011;38606;52.986;6.980;2023-03-31T00:44:21;28.70;;;4.18;;
52708;SDS011;38606;52.986;6.980;2023-03-31T00:47:00;17.98;;;3.03;;
52708;SDS011;38606;52.986;6.980;2023-03-31T00:49:35;17.80;;;3.00;;
52708;SDS011;38606;52.986;6.980;2023-03-31T00:52:18;23.05;;;3.22;;
52708;SDS011;38606;52.986;6.980;2023-03-31T00:54:50;23.98;;;3.67;;
52708;SDS011;38606;52.986;6.980;2023-03-31T00:57:20;22.23;;;3.65;;
52708;SDS011;38606;52.986;6.980;2023-03-31T00:59:49;25.50;;;3.28;;
52708;SDS011;38606;52.986;6.980;2023-03-31T01:02:17;20.95;;;3.15;;
52708;SDS011;38606;52.986;6.980;2023-03-31T01:04:50;20.63;;;3.13;;
52708;SDS011;38606;52.986;6.980;2023-03-31T01:07:21;25.40;;;3.97;;
52708;SDS011;38606;52.986;6.980;2023-03-31T01:09:56;16.60;;;3.28;;
52708;SDS011;38606;52.986;6.980;2023-03-31T01:12:24;23.42;;;3.15;;
52708;SDS011;38606;52.986;6.980;2023-03-31T01:14:51;27.23;;;4.30;;
52708;SDS011;38606;52.986;6.980;2023-03-31T01:17:17;19.20;;;3.38;;
52708;SDS011;38606;52.986;6.980;2023-03-31T01:25:08;18.98;;;3.15;;
52708;SDS011;38606;52.986;6.980;2023-03-31T01:28:00;25.75;;;4.10;;
52708;SDS011;38606;52.986;6.980;2023-03-31T01:30:51;20.40;;;3.05;;
52708;SDS011;38606;52.986;6.980;2023-03-31T01:46:50;18.08;;;3.03;;
52708;SDS011;38606;52.986;6.980;2023-03-31T01:49:26;18.73;;;3.15;;
52708;SDS011;38606;52.986;6.980;2023-03-31T01:52:20;25.17;;;4.38;;
52708;SDS011;38606;52.986;6.980;2023-03-31T01:57:40;24.77;;;3.35;;
52708;SDS011;38606;52.986;6.980;2023-03-31T02:00:15;20.30;;;3.88;;
52708;SDS011;38606;52.986;6.980;2023-03-31T02:02:56;19.08;;;3.10;;
52708;SDS011;38606;52.986;6.980;2023-03-31T02:05:32;21.00;;;3.28;;
52708;SDS011;38606;52.986;6.980;2023-03-31T02:10:36;17.05;;;3.40;;
52708;SDS011;38606;52.986;6.980;2023-03-31T02:13:05;29.05;;;4.03;;
52708;SDS011;38606;52.986;6.980;2023-03-31T02:15:36;17.08;;;3.88;;
52708;SDS011;38606;52.986;6.980;2023-03-31T02:18:06;23.90;;;5.20;;
52708;SDS011;38606;52.986;6.980;2023-03-31T02:20:38;24.92;;;3.83;;
52708;SDS011;38606;52.986;6.980;2023-03-31T02:23:11;15.93;;;4.18;;
52708;SDS011;38606;52.986;6.980;2023-03-31T02:25:40;20.90;;;4.95;;
52708;SDS011;38606;52.986;6.980;2023-03-31T02:28:11;20.45;;;4.53;;
52708;SDS011;38606;52.986;6.980;2023-03-31T02:33:30;20.33;;;4.38;;
52708;SDS011;38606;52.986;6.980;2023-03-31T02:35:57;22.05;;;4.25;;
52708;SDS011;38606;52.986;6.980;2023-03-31T02:38:23;19.80;;;4.47;;
52708;SDS011;38606;52.986;6.980;2023-03-31T02:40:50;21.15;;;4.32;;
52708;SDS011;38606;52.986;6.980;2023-03-31T02:43:15;16.85;;;4.63;;
52708;SDS011;38606;52.986;6.980;2023-03-31T02:48:09;24.45;;;5.10;;
52708;SDS011;38606;52.986;6.980;2023-03-31T02:56:11;21.95;;;4.82;;
52708;SDS011;38606;52.986;6.980;2023-03-31T03:01:30;17.58;;;3.72;;
52708;SDS011;38606;52.986;6.980;2023-03-31T03:09:26;16.65;;;4.25;;
52708;SDS011;38606;52.986;6.980;2023-03-31T03:14:50;21.23;;;4.57;;
52708;SDS011;38606;52.986;6.980;2023-03-31T03:17:29;12.93;;;3.10;;
52708;SDS011;38606;52.986;6.980;2023-03-31T03:20:00;14.27;;;3.55;;
52708;SDS011;38606;52.986;6.980;2023-03-31T03:22:32;13.25;;;3.72;;
52708;SDS011;38606;52.986;6.980;2023-03-31T03:24:58;16.40;;;3.38;;
52708;SDS011;38606;52.986;6.980;2023-03-31T03:27:23;16.08;;;3.88;;
52708;SDS011;38606;52.986;6.980;2023-03-31T03:29:49;11.68;;;3.53;;
52708;SDS011;38606;52.986;6.980;2023-03-31T03:32:15;13.00;;;4.00;;
52708;SDS011;38606;52.986;6.980;2023-03-31T03:34:41;15.55;;;3.95;;
52708;SDS011;38606;52.986;6.980;2023-03-31T03:37:07;12.57;;;3.47;;
52708;SDS011;38606;52.986;6.980;2023-03-31T03:39:32;15.07;;;3.30;;
52708;SDS011;38606;52.986;6.980;2023-03-31T03:41:58;16.23;;;3.65;;
52708;SDS011;38606;52.986;6.980;2023-03-31T03:44:24;13.88;;;4.15;;
52708;SDS011;38606;52.986;6.980;2023-03-31T03:46:50;12.05;;;3.10;;
52708;SDS011;38606;52.986;6.980;2023-03-31T03:49:15;15.32;;;3.30;;
52708;SDS011;38606;52.986;6.980;2023-03-31T03:51:41;17.52;;;3.33;;
52708;SDS011;38606;52.986;6.980;2023-03-31T03:54:07;14.55;;;2.95;;
52708;SDS011;38606;52.986;6.980;2023-03-31T03:56:33;18.58;;;3.10;;
52708;SDS011;38606;52.986;6.980;2023-03-31T03:58:58;13.25;;;2.70;;
52708;SDS011;38606;52.986;6.980;2023-03-31T04:01:24;10.52;;;3.17;;
52708;SDS011;38606;52.986;6.980;2023-03-31T04:03:50;13.48;;;3.10;;
52708;SDS011;38606;52.986;6.980;2023-03-31T04:06:15;11.85;;;2.88;;
52708;SDS011;38606;52.986;6.980;2023-03-31T04:08:41;14.27;;;3.33;;
52708;SDS011;38606;52.986;6.980;2023-03-31T04:11:11;16.20;;;3.28;;
52708;SDS011;38606;52.986;6.980;2023-03-31T04:13:39;15.82;;;3.78;;
52708;SDS011;38606;52.986;6.980;2023-03-31T04:16:05;12.75;;;3.35;;
52708;SDS011;38606;52.986;6.980;2023-03-31T04:18:31;9.43;;;3.08;;
52708;SDS011;38606;52.986;6.980;2023-03-31T04:20:57;9.90;;;3.53;;
52708;SDS011;38606;52.986;6.980;2023-03-31T04:23:32;8.40;;;3.10;;
52708;SDS011;38606;52.986;6.980;2023-03-31T04:26:09;9.60;;;3.75;;
52708;SDS011;38606;52.986;6.980;2023-03-31T04:28:38;9.43;;;3.00;;
52708;SDS011;38606;52.986;6.980;2023-03-31T04:31:10;10.00;;;3.03;;
52708;SDS011;38606;52.986;6.980;2023-03-31T04:33:40;13.65;;;3.42;;
52708;SDS011;38606;52.986;6.980;2023-03-31T04:36:10;14.38;;;4.00;;
52708;SDS011;38606;52.986;6.980;2023-03-31T04:38:42;11.02;;;3.25;;
52708;SDS011;38606;52.986;6.980;2023-03-31T04:41:11;12.88;;;3.15;;
52708;SDS011;38606;52.986;6.980;2023-03-31T04:43:37;11.20;;;3.63;;
52708;SDS011;38606;52.986;6.980;2023-03-31T04:46:03;16.60;;;3.42;;
52708;SDS011;38606;52.986;6.980;2023-03-31T04:48:29;12.05;;;3.22;;
52708;SDS011;38606;52.986;6.980;2023-03-31T04:50:54;8.30;;;2.47;;
52708;SDS011;38606;52.986;6.980;2023-03-31T04:53:20;7.68;;;2.38;;
52708;SDS011;38606;52.986;6.980;2023-03-31T04:55:47;10.15;;;2.28;;
52708;SDS011;38606;52.986;6.980;2023-03-31T04:58:13;7.95;;;2.60;;
52708;SDS011;38606;52.986;6.980;2023-03-31T05:00:39;8.75;;;2.50;;
52708;SDS011;38606;52.986;6.980;2023-03-31T05:03:05;8.70;;;2.65;;
52708;SDS011;38606;52.986;6.980;2023-03-31T05:05:31;7.38;;;2.88;;
52708;SDS011;38606;52.986;6.980;2023-03-31T05:07:57;10.45;;;2.95;;
52708;SDS011;38606;52.986;6.980;2023-03-31T05:10:23;10.13;;;3.00;;
52708;SDS011;38606;52.986;6.980;2023-03-31T05:12:49;12.43;;;3.72;;
52708;SDS011;38606;52.986;6.980;2023-03-31T05:15:15;8.65;;;3.40;;
52708;SDS011;38606;52.986;6.980;2023-03-31T05:17:41;11.18;;;3.13;;
52708;SDS011;38606;52.986;6.980;2023-03-31T05:20:07;9.90;;;3.03;;
52708;SDS011;38606;52.986;6.980;2023-03-31T05:22:35;10.52;;;3.47;;
52708;SDS011;38606;52.986;6.980;2023-03-31T05:25:02;11.80;;;4.05;;
52708;SDS011;38606;52.986;6.980;2023-03-31T05:27:29;9.43;;;3.65;;
52708;SDS011;38606;52.986;6.980;2023-03-31T05:29:54;9.60;;;3.90;;
52708;SDS011;38606;52.986;6.980;2023-03-31T05:32:20;12.40;;;3.95;;
52708;SDS011;38606;52.986;6.980;2023-03-31T05:34:46;13.68;;;4.88;;
52708;SDS011;38606;52.986;6.980;2023-03-31T05:37:13;11.32;;;4.40;;
52708;SDS011;38606;52.986;6.980;2023-03-31T05:39:39;10.70;;;4.03;;
52708;SDS011;38606;52.986;6.980;2023-03-31T05:42:05;11.20;;;4.63;;
52708;SDS011;38606;52.986;6.980;2023-03-31T05:44:31;11.75;;;4.55;;
52708;SDS011;38606;52.986;6.980;2023-03-31T05:46:57;15.35;;;4.70;;
52708;SDS011;38606;52.986;6.980;2023-03-31T05:49:23;12.93;;;4.50;;
52708;SDS011;38606;52.986;6.980;2023-03-31T05:51:48;16.58;;;4.65;;
52708;SDS011;38606;52.986;6.980;2023-03-31T05:54:15;11.35;;;4.32;;
52708;SDS011;38606;52.986;6.980;2023-03-31T05:56:41;16.63;;;5.15;;
52708;SDS011;38606;52.986;6.980;2023-03-31T05:59:07;12.18;;;3.90;;
52708;SDS011;38606;52.986;6.980;2023-03-31T06:01:33;12.65;;;4.20;;
52708;SDS011;38606;52.986;6.980;2023-03-31T06:03:58;12.65;;;4.07;;
52708;SDS011;38606;52.986;6.980;2023-03-31T06:06:24;15.05;;;4.70;;
52708;SDS011;38606;52.986;6.980;2023-03-31T06:08:50;14.68;;;4.78;;
52708;SDS011;38606;52.986;6.980;2023-03-31T06:11:20;12.65;;;4.82;;
52708;SDS011;38606;52.986;6.980;2023-03-31T06:13:46;11.13;;;5.10;;
52708;SDS011;38606;52.986;6.980;2023-03-31T06:16:13;11.20;;;4.93;;
52708;SDS011;38606;52.986;6.980;2023-03-31T06:18:41;10.93;;;5.07;;
52708;SDS011;38606;52.986;6.980;2023-03-31T06:21:07;17.13;;;5.15;;
52708;SDS011;38606;52.986;6.980;2023-03-31T06:23:37;12.35;;;5.00;;
52708;SDS011;38606;52.986;6.980;2023-03-31T06:26:06;13.40;;;4.57;;
52708;SDS011;38606;52.986;6.980;2023-03-31T06:28:33;16.25;;;4.78;;
52708;SDS011;38606;52.986;6.980;2023-03-31T06:31:00;10.80;;;5.30;;
52708;SDS011;38606;52.986;6.980;2023-03-31T06:33:30;11.20;;;4.40;;
52708;SDS011;38606;52.986;6.980;2023-03-31T06:35:57;11.10;;;4.20;;
52708;SDS011;38606;52.986;6.980;2023-03-31T06:38:25;15.05;;;5.07;;
52708;SDS011;38606;52.986;6.980;2023-03-31T06:40:52;12.38;;;4.05;;
52708;SDS011;38606;52.986;6.980;2023-03-31T06:43:18;8.80;;;4.88;;
52708;SDS011;38606;52.986;6.980;2023-03-31T06:45:44;7.68;;;4.20;;
52708;SDS011;38606;52.986;6.980;2023-03-31T06:48:11;8.73;;;4.22;;
52708;SDS011;38606;52.986;6.980;2023-03-31T06:50:37;11.05;;;4.40;;
52708;SDS011;38606;52.986;6.980;2023-03-31T06:53:03;13.30;;;4.20;;
52708;SDS011;38606;52.986;6.980;2023-03-31T06:55:29;12.13;;;4.47;;
52708;SDS011;38606;52.986;6.980;2023-03-31T06:57:56;10.43;;;4.93;;
52708;SDS011;38606;52.986;6.980;2023-03-31T07:00:22;9.98;;;4.40;;
52708;SDS011;38606;52.986;6.980;2023-03-31T07:02:49;12.07;;;4.63;;
52708;SDS011;38606;52.986;6.980;2023-03-31T07:05:16;12.90;;;4.38;;
52708;SDS011;38606;52.986;6.980;2023-03-31T07:07:42;13.25;;;4.78;;
52708;SDS011;38606;52.986;6.980;2023-03-31T07:10:08;13.93;;;4.10;;
52708;SDS011;38606;52.986;6.980;2023-03-31T07:12:34;13.43;;;4.50;;
52708;SDS011;38606;52.986;6.980;2023-03-31T07:15:00;13.57;;;4.63;;
52708;SDS011;38606;52.986;6.980;2023-03-31T07:17:25;10.93;;;4.25;;
52708;SDS011;38606;52.986;6.980;2023-03-31T07:19:51;11.48;;;4.35;;
52708;SDS011;38606;52.986;6.980;2023-03-31T07:22:17;10.60;;;3.75;;
52708;SDS011;38606;52.986;6.980;2023-03-31T07:24:42;12.30;;;4.20;;
52708;SDS011;38606;52.986;6.980;2023-03-31T07:27:08;12.73;;;4.10;;
52708;SDS011;38606;52.986;6.980;2023-03-31T07:29:34;11.68;;;3.72;;
52708;SDS011;38606;52.986;6.980;2023-03-31T07:32:00;10.13;;;3.75;;
52708;SDS011;38606;52.986;6.980;2023-03-31T07:34:25;9.60;;;4.13;;
52708;SDS011;38606;52.986;6.980;2023-03-31T07:36:53;8.55;;;4.30;;
52708;SDS011;38606;52.986;6.980;2023-03-31T07:39:20;14.70;;;4.65;;
52708;SDS011;38606;52.986;6.980;2023-03-31T07:41:46;10.73;;;4.57;;
52708;SDS011;38606;52.986;6.980;2023-03-31T07:44:12;12.45;;;4.70;;
52708;SDS011;38606;52.986;6.980;2023-03-31T07:46:38;8.13;;;4.03;;
52708;SDS011;38606;52.986;6.980;2023-03-31T07:49:04;9.20;;;4.10;;
52708;SDS011;38606;52.986;6.980;2023-03-31T07:51:31;14.77;;;4.35;;
52708;SDS011;38606;52.986;6.980;2023-03-31T07:53:58;12.02;;;3.90;;
52708;SDS011;38606;52.986;6.980;2023-03-31T07:56:23;12.27;;;3.92;;
52708;SDS011;38606;52.986;6.980;2023-03-31T07:58:50;13.60;;;3.83;;
52708;SDS011;38606;52.986;6.980;2023-03-31T08:01:17;9.82;;;3.55;;
52708;SDS011;38606;52.986;6.980;2023-03-31T08:03:45;12.93;;;3.67;;
52708;SDS011;38606;52.986;6.980;2023-03-31T08:06:20;10.18;;;3.85;;
52708;SDS011;38606;52.986;6.980;2023-03-31T08:08:47;11.50;;;4.00;;
52708;SDS011;38606;52.986;6.980;2023-03-31T08:11:14;12.73;;;3.80;;
52708;SDS011;38606;52.986;6.980;2023-03-31T08:13:40;10.02;;;3.75;;
52708;SDS011;38606;52.986;6.980;2023-03-31T08:16:06;8.88;;;3.50;;
52708;SDS011;38606;52.986;6.980;2023-03-31T08:18:32;9.27;;;3.45;;
52708;SDS011;38606;52.986;6.980;2023-03-31T08:20:58;13.52;;;3.88;;
52708;SDS011;38606;52.986;6.980;2023-03-31T08:23:24;9.85;;;3.97;;
52708;SDS011;38606;52.986;6.980;2023-03-31T08:25:50;8.52;;;3.78;;
52708;SDS011;38606;52.986;6.980;2023-03-31T08:28:16;10.27;;;4.20;;
52708;SDS011;38606;52.986;6.980;2023-03-31T08:30:42;11.75;;;4.63;;
52708;SDS011;38606;52.986;6.980;2023-03-31T08:33:08;13.20;;;4.80;;
52708;SDS011;38606;52.986;6.980;2023-03-31T08:35:36;15.15;;;5.65;;
52708;SDS011;38606;52.986;6.980;2023-03-31T08:38:02;13.27;;;5.07;;
52708;SDS011;38606;52.986;6.980;2023-03-31T08:40:29;11.90;;;5.20;;
52708;SDS011;38606;52.986;6.980;2023-03-31T08:45:36;9.73;;;6.00;;
52708;SDS011;38606;52.986;6.980;2023-03-31T08:48:19;12.43;;;5.90;;
52708;SDS011;38606;52.986;6.980;2023-03-31T08:51:02;15.77;;;5.75;;
52708;SDS011;38606;52.986;6.980;2023-03-31T08:53:33;8.27;;;5.18;;
52708;SDS011;38606;52.986;6.980;2023-03-31T08:56:03;14.13;;;5.30;;
52708;SDS011;38606;52.986;6.980;2023-03-31T08:58:40;11.48;;;5.13;;
52708;SDS011;38606;52.986;6.980;2023-03-31T09:06:30;11.13;;;4.60;;
52708;SDS011;38606;52.986;6.980;2023-03-31T09:09:13;11.95;;;5.00;;
52708;SDS011;38606;52.986;6.980;2023-03-31T09:11:49;13.05;;;4.75;;
52708;SDS011;38606;52.986;6.980;2023-03-31T09:22:11;15.77;;;3.75;;
52708;SDS011;38606;52.986;6.980;2023-03-31T09:24:51;9.43;;;4.50;;
52708;SDS011;38606;52.986;6.980;2023-03-31T09:27:34;10.13;;;3.97;;
52708;SDS011;38606;52.986;6.980;2023-03-31T09:30:23;12.60;;;4.47;;
52708;SDS011;38606;52.986;6.980;2023-03-31T09:32:52;8.43;;;4.25;;
52708;SDS011;38606;52.986;6.980;2023-03-31T09:35:39;10.52;;;4.60;;
52708;SDS011;38606;52.986;6.980;2023-03-31T09:38:05;10.25;;;5.95;;
52708;SDS011;38606;52.986;6.980;2023-03-31T09:40:31;9.88;;;3.92;;
52708;SDS011;38606;52.986;6.980;2023-03-31T09:42:59;9.85;;;4.65;;
52708;SDS011;38606;52.986;6.980;2023-03-31T09:45:46;8.27;;;3.55;;
52708;SDS011;38606;52.986;6.980;2023-03-31T09:48:19;8.30;;;3.30;;
52708;SDS011;38606;52.986;6.980;2023-03-31T09:50:51;6.50;;;3.22;;
52708;SDS011;38606;52.986;6.980;2023-03-31T09:53:34;8.63;;;2.63;;
52708;SDS011;38606;52.986;6.980;2023-03-31T09:59:12;7.32;;;2.10;;
52708;SDS011;38606;52.986;6.980;2023-03-31T10:04:11;5.68;;;2.00;;
52708;SDS011;38606;52.986;6.980;2023-03-31T10:06:48;10.23;;;1.92;;
52708;SDS011;38606;52.986;6.980;2023-03-31T10:09:16;7.07;;;2.10;;
52708;SDS011;38606;52.986;6.980;2023-03-31T10:11:52;6.53;;;1.90;;
52708;SDS011;38606;52.986;6.980;2023-03-31T10:14:48;5.97;;;1.83;;
52708;SDS011;38606;52.986;6.980;2023-03-31T10:17:14;8.98;;;2.58;;
52708;SDS011;38606;52.986;6.980;2023-03-31T10:19:52;4.13;;;1.80;;
52708;SDS011;38606;52.986;6.980;2023-03-31T10:24:47;3.95;;;1.30;;
52708;SDS011;38606;52.986;6.980;2023-03-31T10:27:24;4.15;;;1.42;;
52708;SDS011;38606;52.986;6.980;2023-03-31T10:29:52;5.28;;;1.23;;
52708;SDS011;38606;52.986;6.980;2023-03-31T10:32:27;5.35;;;1.30;;
52708;SDS011;38606;52.986;6.980;2023-03-31T10:35:05;6.30;;;1.40;;
52708;SDS011;38606;52.986;6.980;2023-03-31T10:37:38;5.00;;;1.50;;
52708;SDS011;38606;52.986;6.980;2023-03-31T10:40:12;6.88;;;1.65;;
52708;SDS011;38606;52.986;6.980;2023-03-31T10:42:39;5.28;;;1.48;;
52708;SDS011;38606;52.986;6.980;2023-03-31T10:45:13;4.68;;;1.60;;
52708;SDS011;38606;52.986;6.980;2023-03-31T10:47:45;6.82;;;1.95;;
52708;SDS011;38606;52.986;6.980;2023-03-31T10:50:14;4.85;;;1.58;;
52708;SDS011;38606;52.986;6.980;2023-03-31T10:52:42;3.88;;;1.75;;
52708;SDS011;38606;52.986;6.980;2023-03-31T10:55:19;5.03;;;1.77;;
52708;SDS011;38606;52.986;6.980;2023-03-31T10:57:52;3.35;;;1.48;;
52708;SDS011;38606;52.986;6.980;2023-03-31T11:05:51;5.25;;;1.60;;
52708;SDS011;38606;52.986;6.980;2023-03-31T11:11:23;4.63;;;1.33;;
52708;SDS011;38606;52.986;6.980;2023-03-31T11:25:30;5.57;;;1.45;;
52708;SDS011;38606;52.986;6.980;2023-03-31T11:34:36;3.90;;;1.30;;
52708;SDS011;38606;52.986;6.980;2023-03-31T11:42:51;4.53;;;1.40;;
52708;SDS011;38606;52.986;6.980;2023-03-31T11:45:26;3.83;;;1.48;;
52708;SDS011;38606;52.986;6.980;2023-03-31T11:47:58;4.78;;;1.25;;
52708;SDS011;38606;52.986;6.980;2023-03-31T11:50:29;5.03;;;1.20;;
52708;SDS011;38606;52.986;6.980;2023-03-31T11:55:40;4.85;;;1.63;;
52708;SDS011;38606;52.986;6.980;2023-03-31T11:58:14;4.57;;;1.45;;
52708;SDS011;38606;52.986;6.980;2023-03-31T12:00:48;3.80;;;1.52;;
52708;SDS011;38606;52.986;6.980;2023-03-31T12:03:15;4.10;;;1.80;;
52708;SDS011;38606;52.986;6.980;2023-03-31T12:05:57;5.45;;;1.40;;
52708;SDS011;38606;52.986;6.980;2023-03-31T12:08:34;4.68;;;1.50;;
52708;SDS011;38606;52.986;6.980;2023-03-31T12:11:10;4.97;;;1.50;;
52708;SDS011;38606;52.986;6.980;2023-03-31T12:17:01;6.70;;;1.50;;
52708;SDS011;38606;52.986;6.980;2023-03-31T12:19:17;6.07;;;1.52;;
52708;SDS011;38606;52.986;6.980;2023-03-31T12:22:09;5.55;;;1.70;;
52708;SDS011;38606;52.986;6.980;2023-03-31T12:24:48;5.80;;;1.95;;
52708;SDS011;38606;52.986;6.980;2023-03-31T12:27:16;3.78;;;1.60;;
52708;SDS011;38606;52.986;6.980;2023-03-31T12:29:57;9.93;;;2.00;;
52708;SDS011;38606;52.986;6.980;2023-03-31T12:32:28;6.10;;;2.20;;
52708;SDS011;38606;52.986;6.980;2023-03-31T12:34:59;8.23;;;2.20;;
52708;SDS011;38606;52.986;6.980;2023-03-31T12:40:22;5.05;;;1.92;;
52708;SDS011;38606;52.986;6.980;2023-03-31T12:43:18;7.72;;;2.22;;
52708;SDS011;38606;52.986;6.980;2023-03-31T12:45:54;7.60;;;2.15;;
52708;SDS011;38606;52.986;6.980;2023-03-31T12:48:32;9.77;;;2.55;;
52708;SDS011;38606;52.986;6.980;2023-03-31T12:51:50;7.55;;;2.20;;
52708;SDS011;38606;52.986;6.980;2023-03-31T12:57:34;10.25;;;2.30;;
52708;SDS011;38606;52.986;6.980;2023-03-31T13:02:41;7.75;;;2.40;;
52708;SDS011;38606;52.986;6.980;2023-03-31T13:08:01;6.45;;;2.10;;
52708;SDS011;38606;52.986;6.980;2023-03-31T13:10:29;10.77;;;2.28;;
52708;SDS011;38606;52.986;6.980;2023-03-31T13:13:00;7.50;;;2.20;;
52708;SDS011;38606;52.986;6.980;2023-03-31T13:15:36;11.80;;;2.47;;
52708;SDS011;38606;52.986;6.980;2023-03-31T13:18:02;8.95;;;2.00;;
52708;SDS011;38606;52.986;6.980;2023-03-31T13:20:41;9.75;;;2.78;;
52708;SDS011;38606;52.986;6.980;2023-03-31T13:41:54;8.43;;;2.45;;
52708;SDS011;38606;52.986;6.980;2023-03-31T13:50:19;10.32;;;2.72;;
52708;SDS011;38606;52.986;6.980;2023-03-31T14:06:51;7.28;;;2.70;;
52708;SDS011;38606;52.986;6.980;2023-03-31T14:09:34;10.77;;;3.15;;
52708;SDS011;38606;52.986;6.980;2023-03-31T14:12:17;12.80;;;2.65;;
52708;SDS011;38606;52.986;6.980;2023-03-31T14:14:53;9.35;;;2.60;;
52708;SDS011;38606;52.986;6.980;2023-03-31T14:17:20;12.85;;;2.50;;
52708;SDS011;38606;52.986;6.980;2023-03-31T14:28:19;10.63;;;2.55;;
52708;SDS011;38606;52.986;6.980;2023-03-31T14:39:48;7.72;;;1.45;;
52708;SDS011;38606;52.986;6.980;2023-03-31T14:42:17;6.93;;;1.50;;
52708;SDS011;38606;52.986;6.980;2023-03-31T14:44:57;5.82;;;1.13;;
52708;SDS011;38606;52.986;6.980;2023-03-31T14:47:27;8.73;;;1.58;;
52708;SDS011;38606;52.986;6.980;2023-03-31T14:50:00;7.60;;;1.27;;
52708;SDS011;38606;52.986;6.980;2023-03-31T14:52:33;5.32;;;1.08;;
52708;SDS011;38606;52.986;6.980;2023-03-31T14:54:59;5.57;;;1.27;;
52708;SDS011;38606;52.986;6.980;2023-03-31T14:57:33;6.97;;;1.60;;
52708;SDS011;38606;52.986;6.980;2023-03-31T15:00:05;4.35;;;1.10;;
52708;SDS011;38606;52.986;6.980;2023-03-31T15:02:34;4.60;;;0.93;;
52708;SDS011;38606;52.986;6.980;2023-03-31T15:05:02;3.70;;;0.85;;
52708;SDS011;38606;52.986;6.980;2023-03-31T15:07:31;6.00;;;1.27;;
52708;SDS011;38606;52.986;6.980;2023-03-31T15:09:58;5.47;;;1.17;;
52708;SDS011;38606;52.986;6.980;2023-03-31T15:12:25;4.03;;;1.35;;
52708;SDS011;38606;52.986;6.980;2023-03-31T15:14:57;5.90;;;1.88;;
52708;SDS011;38606;52.986;6.980;2023-03-31T15:17:28;5.50;;;1.20;;
52708;SDS011;38606;52.986;6.980;2023-03-31T15:19:58;8.70;;;1.63;;
52708;SDS011;38606;52.986;6.980;2023-03-31T15:22:28;3.13;;;1.50;;
52708;SDS011;38606;52.986;6.980;2023-03-31T15:24:54;6.65;;;1.48;;
52708;SDS011;38606;52.986;6.980;2023-03-31T15:29:47;9.32;;;1.88;;
52708;SDS011;38606;52.986;6.980;2023-03-31T15:32:20;5.10;;;1.25;;
52708;SDS011;38606;52.986;6.980;2023-03-31T15:34:50;8.45;;;1.67;;
52708;SDS011;38606;52.986;6.980;2023-03-31T15:37:24;6.35;;;1.45;;
52708;SDS011;38606;52.986;6.980;2023-03-31T15:40:08;3.88;;;1.13;;
52708;SDS011;38606;52.986;6.980;2023-03-31T15:42:48;5.97;;;1.40;;
52708;SDS011;38606;52.986;6.980;2023-03-31T15:47:55;5.60;;;1.23;;
52708;SDS011;38606;52.986;6.980;2023-03-31T15:50:25;7.03;;;1.80;;
52708;SDS011;38606;52.986;6.980;2023-03-31T15:52:54;7.22;;;1.77;;
52708;SDS011;38606;52.986;6.980;2023-03-31T15:55:23;8.07;;;1.77;;
52708;SDS011;38606;52.986;6.980;2023-03-31T15:57:55;6.55;;;2.05;;
52708;SDS011;38606;52.986;6.980;2023-03-31T16:03:03;7.05;;;1.58;;
52708;SDS011;38606;52.986;6.980;2023-03-31T16:05:51;5.28;;;1.52;;
52708;SDS011;38606;52.986;6.980;2023-03-31T16:08:24;7.13;;;1.83;;
52708;SDS011;38606;52.986;6.980;2023-03-31T16:11:01;7.32;;;1.92;;
52708;SDS011;38606;52.986;6.980;2023-03-31T16:13:33;9.75;;;1.92;;
52708;SDS011;38606;52.986;6.980;2023-03-31T16:16:06;6.43;;;2.10;;
52708;SDS011;38606;52.986;6.980;2023-03-31T16:18:36;11.52;;;2.08;;
52708;SDS011;38606;52.986;6.980;2023-03-31T16:21:07;7.68;;;2.00;;
52708;SDS011;38606;52.986;6.980;2023-03-31T16:23:34;11.38;;;2.30;;
52708;SDS011;38606;52.986;6.980;2023-03-31T16:26:04;10.55;;;2.20;;
52708;SDS011;38606;52.986;6.980;2023-03-31T16:28:35;8.00;;;2.20;;
52708;SDS011;38606;52.986;6.980;2023-03-31T16:31:02;7.18;;;1.92;;
52708;SDS011;38606;52.986;6.980;2023-03-31T16:33:29;8.95;;;2.40;;
52708;SDS011;38606;52.986;6.980;2023-03-31T16:36:15;9.48;;;1.90;;
52708;SDS011;38606;52.986;6.980;2023-03-31T16:38:41;7.75;;;2.22;;
52708;SDS011;38606;52.986;6.980;2023-03-31T16:41:07;7.93;;;1.90;;
52708;SDS011;38606;52.986;6.980;2023-03-31T16:43:33;10.45;;;2.25;;
52708;SDS011;38606;52.986;6.980;2023-03-31T16:46:00;8.90;;;2.28;;
52708;SDS011;38606;52.986;6.980;2023-03-31T16:48:28;10.68;;;2.47;;
52708;SDS011;38606;52.986;6.980;2023-03-31T16:50:57;10.57;;;2.03;;
52708;SDS011;38606;52.986;6.980;2023-03-31T16:53:31;11.88;;;3.00;;
52708;SDS011;38606;52.986;6.980;2023-03-31T16:55:58;7.72;;;1.70;;
52708;SDS011;38606;52.986;6.980;2023-03-31T16:58:25;7.82;;;1.77;;
52708;SDS011;38606;52.986;6.980;2023-03-31T17:00:54;11.32;;;2.15;;
52708;SDS011;38606;52.986;6.980;2023-03-31T17:03:21;5.97;;;1.65;;
52708;SDS011;38606;52.986;6.980;2023-03-31T17:05:48;4.68;;;1.00;;
52708;SDS011;38606;52.986;6.980;2023-03-31T17:08:17;5.10;;;0.90;;
52708;SDS011;38606;52.986;6.980;2023-03-31T17:10:49;4.45;;;1.10;;
52708;SDS011;38606;52.986;6.980;2023-03-31T17:13:16;1.77;;;0.60;;
52708;SDS011;38606;52.986;6.980;2023-03-31T17:15:42;3.60;;;0.73;;
52708;SDS011;38606;52.986;6.980;2023-03-31T17:18:08;4.35;;;0.80;;
52708;SDS011;38606;52.986;6.980;2023-03-31T17:20:34;1.05;;;0.50;;
52708;SDS011;38606;52.986;6.980;2023-03-31T17:22:59;3.60;;;0.90;;
52708;SDS011;38606;52.986;6.980;2023-03-31T17:25:25;4.15;;;1.00;;
52708;SDS011;38606;52.986;6.980;2023-03-31T17:27:51;4.25;;;0.95;;
52708;SDS011;38606;52.986;6.980;2023-03-31T17:30:17;4.10;;;0.95;;
52708;SDS011;38606;52.986;6.980;2023-03-31T17:32:42;3.15;;;1.10;;
52708;SDS011;38606;52.986;6.980;2023-03-31T17:35:08;3.35;;;1.40;;
52708;SDS011;38606;52.986;6.980;2023-03-31T17:37:34;7.28;;;1.60;;
52708;SDS011;38606;52.986;6.980;2023-03-31T17:40:01;6.82;;;1.88;;
52708;SDS011;38606;52.986;6.980;2023-03-31T17:42:29;5.07;;;1.55;;
52708;SDS011;38606;52.986;6.980;2023-03-31T17:44:55;5.55;;;1.52;;
52708;SDS011;38606;52.986;6.980;2023-03-31T17:47:22;3.83;;;1.40;;
52708;SDS011;38606;52.986;6.980;2023-03-31T17:49:48;7.85;;;1.70;;
52708;SDS011;38606;52.986;6.980;2023-03-31T17:52:14;7.65;;;1.70;;
52708;SDS011;38606;52.986;6.980;2023-03-31T17:54:40;7.45;;;1.42;;
52708;SDS011;38606;52.986;6.980;2023-03-31T17:57:06;6.72;;;1.40;;
52708;SDS011;38606;52.986;6.980;2023-03-31T17:59:32;6.57;;;1.85;;